Terminal Aerodrome Forecast
Issued by NWS

Current Version | Previous Version | Text Only | Print | Product List | Glossary On
Versions: 1 2 3 4 5 6 7 8 9 10 11 12 13 14 15 16
000
FTAK31 PAJN 230500
TAFAWG
TAF
PAWG 230520Z 2306/2406 VRB02KT P6SM SCT030 BKN060
     FM231000 00000KT P6SM VCFG FEW002 BKN100
     FM231500 32005KT P6SM BKN100
     FM231800 32006KT P6SM SCT120
      AMD LTD TO CLD VIS AND WIND 2306/2315=

USA.gov is the U.S. government's official web portal to all federal, state and local government web resources and services.